KFPR

Treasure Coast International Airport

Fort Pierce, Florida, USA
METAR KFPR 212312Z 24007KT 10SM VCTS -RA FEW020 BKN040 OVC047 27/23 A2995 RMK AO2 LTG DSNT E-S RAB12 P0000 T02670228
Observed Flight Rules
Jun-21 @ 23:12 UTC (45 minutes ago) Visual Flight Rules
Wind Visibility Clouds Conditions
240° at 7 knots 10 miles
  • Few at 2,000' AGL
  • Broken at 4,000' AGL
  • Overcast at 4,700' AGL
  • Area Thunderstorm
  • Light Rain
Temperatures Readings Precipitation
Current 27°C / 81°F
Dewpoint 23°C / 73°F
Humidity 79%
Altimeter 29.95" Hg
Pressure 1014 hPa
Elevation 13
Current Rain 0.005
METAR KFPR 212312Z 24007KT 10SM VCTS -RA FEW020 BKN040 OVC047 27/23 A2995 RMK AO2 LTG DSNT E-S RAB12 P0000 T02670228
Observed Flight Rules
Jun-21 @ 23:12 UTC
(45 minutes ago)
VFR
Wind Visibility
240° at 7 knots 10 miles
Clouds
  • Few at 2,000' AGL
  • Broken at 4,000' AGL
  • Overcast at 4,700' AGL
Conditions
  • Area Thunderstorm
  • Light Rain
Temperature Dewpoint
27°C / 81°F 23°C / 73°F
Humidity Altimeter Pressure
79% 29.95" Hg 1014 hPa
Current Rain
0.005